Time;durP1;ratioP1;P1;durP2;ratioP2;P2;SDS_P1;SDS_P2;PMS_P1;PMS_P2;Temp;Humidity;BMP_temperature;BMP_pressure;BME280_temperature;BME280_humidity;BME280_pressure;Samples;Min_cycle;Max_cycle;Signal;HPM_P1;HPM_P2
2022/09/08 00:00:14;;;;;;;140.75;85.90;;;;;;;;;;5074149;28;20091;-75
2022/09/08 00:02:39;;;;;;;151.85;89.30;;;;;;;;;;5064716;28;20263;-75
2022/09/08 00:05:05;;;;;;;160.27;91.63;;;;;;;;;;5076756;28;20021;-75
2022/09/08 00:07:32;;;;;;;156.75;90.07;;;;;;;;;;5057450;28;20039;-75
2022/09/08 00:09:58;;;;;;;146.82;89.97;;;;;;;;;;5045796;28;20396;-75
2022/09/08 00:12:24;;;;;;;134.48;85.43;;;;;;;;;;5073420;28;20059;-76
2022/09/08 00:14:50;;;;;;;161.30;97.20;;;;;;;;;;5076215;28;20315;-76
2022/09/08 00:17:15;;;;;;;162.05;93.43;;;;;;;;;;5060969;28;20027;-75
2022/09/08 00:19:41;;;;;;;160.40;93.97;;;;;;;;;;5052211;28;20110;-75
2022/09/08 00:22:06;;;;;;;154.35;97.05;;;;;;;;;;5055119;28;20119;-76
2022/09/08 00:24:33;;;;;;;182.45;108.30;;;;;;;;;;5032248;28;20113;-75
2022/09/08 00:26:58;;;;;;;173.70;107.10;;;;;;;;;;5053265;28;20020;-75
2022/09/08 00:29:23;;;;;;;207.38;117.10;;;;;;;;;;5050657;28;20104;-74
2022/09/08 00:31:49;;;;;;;193.27;112.03;;;;;;;;;;5072958;28;20484;-74
2022/09/08 00:34:14;;;;;;;215.73;117.70;;;;;;;;;;5058658;28;20386;-75
2022/09/08 00:36:40;;;;;;;193.75;113.25;;;;;;;;;;5069750;28;20155;-74
2022/09/08 00:39:05;;;;;;;182.75;110.65;;;;;;;;;;5076361;28;20189;-75
2022/09/08 00:41:35;;;;;;;180.43;113.45;;;;;;;;;;5059862;28;20649;-74
2022/09/08 00:44:32;;;;;;;206.60;119.18;;;;;;;;;;5058341;28;20228;-75
2022/09/08 00:46:57;;;;;;;210.10;116.50;;;;;;;;;;5077813;28;20055;-75
2022/09/08 00:49:23;;;;;;;191.25;114.50;;;;;;;;;;5077216;28;20481;-75
2022/09/08 00:51:50;;;;;;;199.07;112.35;;;;;;;;;;5040081;28;20038;-76
2022/09/08 00:54:16;;;;;;;208.05;116.30;;;;;;;;;;5043981;28;20032;-76
2022/09/08 00:56:41;;;;;;;184.65;112.78;;;;;;;;;;5040643;28;20032;-75
2022/09/08 00:59:07;;;;;;;177.98;107.75;;;;;;;;;;5027276;28;20564;-76
2022/09/08 01:01:33;;;;;;;174.60;111.10;;;;;;;;;;5061679;28;20506;-76
2022/09/08 01:03:58;;;;;;;173.68;108.05;;;;;;;;;;5051205;28;20036;-75
2022/09/08 01:15:03;;;;;;;184.63;111.75;;;;;;;;;;5063589;28;20027;-75
2022/09/08 01:17:29;;;;;;;201.35;114.93;;;;;;;;;;5078701;28;20484;-76
2022/09/08 01:19:55;;;;;;;180.07;114.00;;;;;;;;;;5073528;28;20100;-76
2022/09/08 01:22:41;;;;;;;189.88;112.70;;;;;;;;;;5062010;28;20055;-74
2022/09/08 01:25:12;;;;;;;214.02;120.63;;;;;;;;;;5067815;28;20024;-75
2022/09/08 01:27:38;;;;;;;192.82;113.25;;;;;;;;;;5076701;28;20097;-75
2022/09/08 01:30:06;;;;;;;203.75;117.82;;;;;;;;;;5037112;28;20126;-75
2022/09/08 01:32:33;;;;;;;182.05;112.97;;;;;;;;;;5057471;28;20476;-76
2022/09/08 01:34:59;;;;;;;196.18;115.75;;;;;;;;;;5076605;28;20039;-75
2022/09/08 01:37:24;;;;;;;182.20;113.10;;;;;;;;;;5055966;28;20032;-75
2022/09/08 01:39:50;;;;;;;177.98;108.28;;;;;;;;;;5073579;28;20040;-76
2022/09/08 01:42:15;;;;;;;159.88;105.53;;;;;;;;;;5053337;28;20032;-76
2022/09/08 01:44:43;;;;;;;170.75;110.35;;;;;;;;;;5072278;28;20063;-75
2022/09/08 01:47:08;;;;;;;170.90;108.45;;;;;;;;;;5060792;28;20078;-76
2022/09/08 01:49:34;;;;;;;180.48;110.85;;;;;;;;;;5076108;28;20408;-76
2022/09/08 01:51:59;;;;;;;170.18;110.00;;;;;;;;;;5068843;28;20064;-76
2022/09/08 01:54:26;;;;;;;163.55;107.95;;;;;;;;;;5057697;28;20546;-76
2022/09/08 01:56:55;;;;;;;154.40;102.10;;;;;;;;;;5039019;28;20028;-75
2022/09/08 01:59:21;;;;;;;154.38;100.97;;;;;;;;;;5063831;28;20039;-76
2022/09/08 02:01:46;;;;;;;149.05;100.00;;;;;;;;;;5053938;28;20024;-76
2022/09/08 02:04:11;;;;;;;144.55;99.63;;;;;;;;;;5048244;28;20037;-76
2022/09/08 02:06:37;;;;;;;134.35;95.22;;;;;;;;;;5073094;28;20056;-76
2022/09/08 02:09:02;;;;;;;143.65;97.07;;;;;;;;;;5050929;28;20429;-76
2022/09/08 02:11:28;;;;;;;134.10;94.25;;;;;;;;;;5040975;28;20106;-76
2022/09/08 02:13:53;;;;;;;142.73;96.63;;;;;;;;;;5072821;28;20035;-76
2022/09/08 02:16:18;;;;;;;131.63;91.50;;;;;;;;;;5066766;28;20451;-76
2022/09/08 02:18:44;;;;;;;120.97;90.55;;;;;;;;;;5055876;28;20119;-75
2022/09/08 02:21:10;;;;;;;117.95;86.22;;;;;;;;;;5077453;28;20074;-75
2022/09/08 02:23:36;;;;;;;115.55;87.53;;;;;;;;;;5070604;28;20028;-75
2022/09/08 02:26:02;;;;;;;117.53;86.78;;;;;;;;;;5046077;28;20027;-75
2022/09/08 02:28:27;;;;;;;116.75;86.28;;;;;;;;;;5062952;28;20488;-75
2022/09/08 02:30:57;;;;;;;109.60;83.07;;;;;;;;;;5053883;28;20085;-75
2022/09/08 02:33:22;;;;;;;114.38;83.10;;;;;;;;;;5048688;28;20059;-75
2022/09/08 02:35:48;;;;;;;116.88;85.43;;;;;;;;;;5050944;28;20531;-75
2022/09/08 02:38:13;;;;;;;116.32;86.32;;;;;;;;;;5060639;28;20039;-75
2022/09/08 02:40:39;;;;;;;121.72;86.13;;;;;;;;;;5069335;28;20513;-75
2022/09/08 02:43:04;;;;;;;105.30;79.55;;;;;;;;;;5036620;28;20064;-76
2022/09/08 02:45:29;;;;;;;108.10;81.82;;;;;;;;;;5051385;28;20469;-75
2022/09/08 02:47:55;;;;;;;103.15;80.32;;;;;;;;;;5038397;28;20222;-74
2022/09/08 02:50:20;;;;;;;92.10;75.10;;;;;;;;;;5066924;28;20072;-75
2022/09/08 02:52:46;;;;;;;94.10;73.50;;;;;;;;;;5064522;28;20040;-75
2022/09/08 02:55:11;;;;;;;90.00;72.57;;;;;;;;;;5038902;28;20067;-75
2022/09/08 02:57:36;;;;;;;92.70;72.30;;;;;;;;;;5051254;28;20032;-74
2022/09/08 03:00:02;;;;;;;86.93;70.32;;;;;;;;;;5016555;28;20087;-74
2022/09/08 03:02:28;;;;;;;86.05;75.25;;;;;;;;;;5044142;28;20024;-75
2022/09/08 03:04:53;;;;;;;83.43;73.45;;;;;;;;;;5059403;28;20046;-75
2022/09/08 03:07:19;;;;;;;87.00;76.00;;;;;;;;;;5043822;28;20056;-74
2022/09/08 03:09:44;;;;;;;89.53;73.10;;;;;;;;;;5052491;28;20028;-74
2022/09/08 03:12:10;;;;;;;82.95;71.60;;;;;;;;;;5069984;28;20034;-75
2022/09/08 03:14:36;;;;;;;86.07;73.18;;;;;;;;;;5074824;28;20085;-76
2022/09/08 03:17:02;;;;;;;88.45;74.93;;;;;;;;;;5067845;28;20029;-74
2022/09/08 03:19:27;;;;;;;81.95;72.72;;;;;;;;;;5078064;28;20031;-74
2022/09/08 03:21:53;;;;;;;85.95;74.55;;;;;;;;;;5056855;28;20047;-75
2022/09/08 03:24:18;;;;;;;85.95;72.63;;;;;;;;;;5069559;28;20073;-74
2022/09/08 03:26:44;;;;;;;81.18;71.28;;;;;;;;;;5063281;28;20716;-75
2022/09/08 03:29:09;;;;;;;82.75;70.25;;;;;;;;;;5069731;28;20093;-75
2022/09/08 03:31:35;;;;;;;79.93;71.30;;;;;;;;;;5046485;28;20438;-75
2022/09/08 03:34:04;;;;;;;81.50;68.93;;;;;;;;;;5073204;28;20058;-75
2022/09/08 03:36:29;;;;;;;77.53;68.80;;;;;;;;;;5052563;28;20033;-75
2022/09/08 03:38:57;;;;;;;79.28;66.57;;;;;;;;;;5028682;28;20123;-75
2022/09/08 03:41:23;;;;;;;80.97;72.13;;;;;;;;;;5068859;28;20473;-75
2022/09/08 03:43:49;;;;;;;82.20;70.20;;;;;;;;;;5048389;28;20058;-76
2022/09/08 03:46:14;;;;;;;82.32;71.03;;;;;;;;;;5040456;28;20025;-75
2022/09/08 03:48:40;;;;;;;84.20;72.28;;;;;;;;;;5068827;28;20118;-75
2022/09/08 03:51:16;;;;;;;89.20;72.32;;;;;;;;;;5066215;28;20103;-75
2022/09/08 03:53:44;;;;;;;85.03;72.55;;;;;;;;;;5034331;28;20170;-76
2022/09/08 03:56:10;;;;;;;81.15;72.22;;;;;;;;;;5054234;28;20433;-75
2022/09/08 03:58:36;;;;;;;77.38;68.97;;;;;;;;;;5055048;28;20036;-76
2022/09/08 04:01:06;;;;;;;83.85;71.32;;;;;;;;;;5054844;28;20025;-75
2022/09/08 04:03:34;;;;;;;82.40;70.53;;;;;;;;;;5043491;28;20040;-75
2022/09/08 04:05:59;;;;;;;86.28;72.93;;;;;;;;;;5045143;28;20488;-75
2022/09/08 04:08:25;;;;;;;86.55;67.90;;;;;;;;;;5075024;28;20055;-75
2022/09/08 04:10:50;;;;;;;76.18;66.88;;;;;;;;;;5065832;28;20040;-75
2022/09/08 04:13:15;;;;;;;72.15;64.20;;;;;;;;;;5063666;28;20123;-74
2022/09/08 04:15:41;;;;;;;74.68;64.70;;;;;;;;;;5064446;28;20070;-74
2022/09/08 04:18:06;;;;;;;74.55;63.95;;;;;;;;;;5053700;28;20054;-75
2022/09/08 04:20:31;;;;;;;70.05;62.47;;;;;;;;;;5050873;28;20107;-74
2022/09/08 04:22:57;;;;;;;71.78;63.80;;;;;;;;;;5065216;28;20093;-75
2022/09/08 04:25:23;;;;;;;81.60;67.70;;;;;;;;;;5043546;28;20060;-75
2022/09/08 04:27:48;;;;;;;76.10;67.57;;;;;;;;;;5062572;28;20024;-76
2022/09/08 04:30:14;;;;;;;81.70;68.90;;;;;;;;;;5063260;28;20287;-75
2022/09/08 04:32:40;;;;;;;84.47;69.38;;;;;;;;;;5062430;28;20060;-75
2022/09/08 04:35:06;;;;;;;73.95;65.05;;;;;;;;;;5033901;28;20055;-75
2022/09/08 04:37:31;;;;;;;81.97;69.63;;;;;;;;;;5030828;28;20150;-75
2022/09/08 04:39:56;;;;;;;85.30;73.78;;;;;;;;;;5072863;28;20099;-76
2022/09/08 04:42:23;;;;;;;88.72;77.70;;;;;;;;;;5063956;28;20068;-76
2022/09/08 04:44:48;;;;;;;88.50;73.45;;;;;;;;;;5054098;28;20556;-75
2022/09/08 04:47:14;;;;;;;87.20;74.28;;;;;;;;;;5052256;28;20016;-75
2022/09/08 04:49:39;;;;;;;86.72;75.18;;;;;;;;;;5037822;28;20032;-75
2022/09/08 04:52:04;;;;;;;89.20;74.53;;;;;;;;;;5053462;28;20029;-75
2022/09/08 04:54:30;;;;;;;95.40;74.68;;;;;;;;;;5052167;28;20032;-75
2022/09/08 04:56:55;;;;;;;94.90;76.90;;;;;;;;;;5053506;28;20033;-75
2022/09/08 04:59:21;;;;;;;95.03;76.90;;;;;;;;;;5069366;28;20543;-75
2022/09/08 05:01:46;;;;;;;91.10;77.30;;;;;;;;;;5068968;28;20115;-75
2022/09/08 05:04:11;;;;;;;91.70;75.68;;;;;;;;;;5029870;28;20082;-75
2022/09/08 05:06:37;;;;;;;91.50;74.90;;;;;;;;;;5063852;28;20036;-75
2022/09/08 05:09:02;;;;;;;94.22;74.28;;;;;;;;;;5054886;28;20123;-77
2022/09/08 05:11:29;;;;;;;98.20;75.65;;;;;;;;;;5068295;28;20028;-77
2022/09/08 05:13:55;;;;;;;92.35;76.82;;;;;;;;;;5033925;28;20021;-76
2022/09/08 05:16:21;;;;;;;101.75;78.80;;;;;;;;;;5038545;28;20035;-76
2022/09/08 05:18:48;;;;;;;93.18;74.93;;;;;;;;;;5048421;28;20071;-76
2022/09/08 05:21:14;;;;;;;100.07;77.60;;;;;;;;;;5040898;28;20085;-76
2022/09/08 05:23:39;;;;;;;101.60;79.93;;;;;;;;;;5053623;28;20113;-77
2022/09/08 05:26:06;;;;;;;92.63;74.22;;;;;;;;;;5043795;28;20660;-77
2022/09/08 05:28:36;;;;;;;95.43;75.30;;;;;;;;;;5042210;28;20417;-77
2022/09/08 05:31:03;;;;;;;98.07;79.43;;;;;;;;;;5053163;28;20576;-76
2022/09/08 05:33:29;;;;;;;95.15;77.05;;;;;;;;;;5037373;28;20029;-76
2022/09/08 05:35:54;;;;;;;94.20;76.20;;;;;;;;;;5052788;28;20036;-76
2022/09/08 05:38:20;;;;;;;98.85;77.97;;;;;;;;;;5044786;28;20049;-75
2022/09/08 05:40:45;;;;;;;93.10;77.97;;;;;;;;;;5035707;28;20103;-75
2022/09/08 05:43:11;;;;;;;99.60;77.53;;;;;;;;;;5070952;28;20425;-77
2022/09/08 05:45:36;;;;;;;90.78;77.18;;;;;;;;;;5036888;28;20032;-75
2022/09/08 05:48:02;;;;;;;94.53;74.65;;;;;;;;;;5057347;28;20099;-76
2022/09/08 05:50:33;;;;;;;92.80;73.70;;;;;;;;;;5086945;28;20032;-76
2022/09/08 05:52:59;;;;;;;92.88;73.18;;;;;;;;;;5038250;28;20024;-76
2022/09/08 05:55:24;;;;;;;90.20;71.13;;;;;;;;;;5052795;28;20150;-76
2022/09/08 05:57:50;;;;;;;86.18;70.07;;;;;;;;;;5049834;28;20100;-76
2022/09/08 06:00:15;;;;;;;86.03;71.75;;;;;;;;;;5052514;28;20056;-76
2022/09/08 06:02:40;;;;;;;80.80;69.53;;;;;;;;;;5036663;28;20078;-76
2022/09/08 06:05:06;;;;;;;89.65;71.18;;;;;;;;;;5068974;28;20124;-76
2022/09/08 06:07:31;;;;;;;92.03;72.05;;;;;;;;;;5069857;28;20031;-76
2022/09/08 06:09:57;;;;;;;87.47;72.05;;;;;;;;;;5053206;28;20036;-76
2022/09/08 06:12:22;;;;;;;90.65;73.95;;;;;;;;;;5055695;28;20593;-76
2022/09/08 06:14:48;;;;;;;94.22;71.75;;;;;;;;;;5043290;28;20033;-75
2022/09/08 06:17:13;;;;;;;79.82;67.40;;;;;;;;;;5058884;28;20174;-76
2022/09/08 06:19:39;;;;;;;82.82;69.22;;;;;;;;;;5059616;28;20427;-76
2022/09/08 06:22:04;;;;;;;82.20;68.32;;;;;;;;;;5029329;28;20487;-76
2022/09/08 06:24:29;;;;;;;83.40;69.15;;;;;;;;;;5058351;28;20483;-77
2022/09/08 06:27:04;;;;;;;79.25;64.93;;;;;;;;;;5056207;28;20515;-78
2022/09/08 06:29:51;;;;;;;75.43;59.00;;;;;;;;;;5073175;28;20535;-78
2022/09/08 06:32:33;;;;;;;68.90;52.95;;;;;;;;;;5074934;28;20555;-78
2022/09/08 06:35:05;;;;;;;66.00;51.03;;;;;;;;;;5071930;28;20122;-77
2022/09/08 06:37:49;;;;;;;61.97;46.83;;;;;;;;;;5054774;28;20062;-76
2022/09/08 06:40:35;;;;;;;46.90;39.42;;;;;;;;;;5069016;28;20033;-76
2022/09/08 06:43:17;;;;;;;38.95;32.15;;;;;;;;;;5031253;28;20341;-76
2022/09/08 06:45:44;;;;;;;34.08;26.98;;;;;;;;;;5051509;28;20028;-77
2022/09/08 06:48:16;;;;;;;29.95;23.13;;;;;;;;;;5043684;28;20019;-76
2022/09/08 06:50:54;;;;;;;27.42;22.23;;;;;;;;;;5065926;28;20028;-76
2022/09/08 06:53:23;;;;;;;20.58;13.25;;;;;;;;;;5051397;28;20024;-76
2022/09/08 06:56:13;;;;;;;19.35;12.75;;;;;;;;;;5035667;28;20123;-76
2022/09/08 06:58:41;;;;;;;23.33;14.40;;;;;;;;;;5055058;28;20086;-76
2022/09/08 07:01:24;;;;;;;17.63;12.43;;;;;;;;;;5053192;28;20039;-76
2022/09/08 07:03:58;;;;;;;16.85;9.98;;;;;;;;;;5035604;28;20033;-76
2022/09/08 07:06:25;;;;;;;12.13;8.48;;;;;;;;;;5036334;28;20024;-76
2022/09/08 07:09:06;;;;;;;13.65;6.60;;;;;;;;;;5068936;28;20162;-76
2022/09/08 07:11:53;;;;;;;8.65;5.75;;;;;;;;;;5036754;28;20484;-76
2022/09/08 07:14:46;;;;;;;11.65;6.30;;;;;;;;;;5071697;28;20024;-77
2022/09/08 07:17:32;;;;;;;14.63;6.47;;;;;;;;;;5063788;28;20048;-76
2022/09/08 07:19:57;;;;;;;13.07;6.63;;;;;;;;;;5051337;28;20039;-76
2022/09/08 07:22:32;;;;;;;11.88;6.68;;;;;;;;;;5035916;28;20339;-76
2022/09/08 07:25:15;;;;;;;15.68;6.88;;;;;;;;;;5054718;28;20699;-75
2022/09/08 07:27:41;;;;;;;14.18;7.13;;;;;;;;;;5031957;28;20036;-77
2022/09/08 07:30:15;;;;;;;13.43;7.22;;;;;;;;;;5054962;28;20044;-76
2022/09/08 07:32:41;;;;;;;13.82;8.02;;;;;;;;;;5060036;28;20059;-76
2022/09/08 07:35:52;;;;;;;14.40;8.70;;;;;;;;;;5020914;28;20769;-76
2022/09/08 07:38:36;;;;;;;14.07;8.82;;;;;;;;;;5059387;28;20111;-76
2022/09/08 07:41:03;;;;;;;12.07;8.30;;;;;;;;;;5026140;28;20384;-76
2022/09/08 07:43:29;;;;;;;13.32;8.32;;;;;;;;;;5045084;28;20024;-76
2022/09/08 07:46:11;;;;;;;14.30;8.15;;;;;;;;;;5042652;28;20029;-77
2022/09/08 07:48:42;;;;;;;16.10;8.73;;;;;;;;;;5042695;28;20035;-77
2022/09/08 07:51:13;;;;;;;12.32;8.25;;;;;;;;;;5056376;28;20450;-77
2022/09/08 07:53:57;;;;;;;15.13;9.13;;;;;;;;;;5076706;28;20044;-77
2022/09/08 07:56:31;;;;;;;12.05;7.85;;;;;;;;;;5075811;28;20046;-77
2022/09/08 07:59:15;;;;;;;16.08;8.70;;;;;;;;;;5046171;28;20028;-77
2022/09/08 08:01:47;;;;;;;16.50;8.57;;;;;;;;;;5073328;28;20036;-77
2022/09/08 08:04:15;;;;;;;18.42;9.43;;;;;;;;;;5044546;28;20435;-76
2022/09/08 08:06:51;;;;;;;18.55;10.50;;;;;;;;;;5073845;28;20507;-76
2022/09/08 08:09:52;;;;;;;17.35;11.02;;;;;;;;;;5072646;28;20035;-76
2022/09/08 08:12:44;;;;;;;15.55;11.57;;;;;;;;;;5055653;28;20028;-76
2022/09/08 08:15:20;;;;;;;17.92;12.07;;;;;;;;;;5041431;28;21442;-76
2022/09/08 08:17:57;;;;;;;16.35;11.30;;;;;;;;;;5050971;28;20051;-76
2022/09/08 08:20:40;;;;;;;16.33;11.45;;;;;;;;;;5067348;28;20033;-76
2022/09/08 08:23:39;;;;;;;20.77;12.98;;;;;;;;;;5053496;28;20027;-76
2022/09/08 08:26:14;;;;;;;16.55;11.55;;;;;;;;;;5066588;28;20032;-77
2022/09/08 08:28:41;;;;;;;15.68;11.75;;;;;;;;;;5069078;28;20128;-77
2022/09/08 08:31:30;;;;;;;16.05;12.40;;;;;;;;;;5056024;28;20028;-77
2022/09/08 08:34:25;;;;;;;18.48;11.80;;;;;;;;;;5071438;28;20085;-77
2022/09/08 08:36:51;;;;;;;18.70;12.80;;;;;;;;;;5062278;28;20059;-77
2022/09/08 08:39:21;;;;;;;18.63;12.40;;;;;;;;;;5046317;28;20403;-77
2022/09/08 08:41:46;;;;;;;17.75;13.00;;;;;;;;;;5065351;28;20683;-77
2022/09/08 08:44:27;;;;;;;16.30;12.43;;;;;;;;;;5071190;28;20119;-77
2022/09/08 08:47:20;;;;;;;17.33;12.38;;;;;;;;;;5065510;28;20089;-77
2022/09/08 08:50:20;;;;;;;19.98;14.05;;;;;;;;;;5058349;28;20430;-77
2022/09/08 08:53:04;;;;;;;16.05;13.52;;;;;;;;;;5054540;28;20037;-77
2022/09/08 08:55:50;;;;;;;26.00;15.10;;;;;;;;;;5070400;28;20167;-77
2022/09/08 08:58:15;;;;;;;19.58;13.70;;;;;;;;;;5055281;28;20027;-77
2022/09/08 09:00:47;;;;;;;22.38;15.25;;;;;;;;;;5068732;28;20426;-77
2022/09/08 09:03:20;;;;;;;20.35;13.45;;;;;;;;;;5024312;28;20572;-77
2022/09/08 09:06:15;;;;;;;19.40;12.73;;;;;;;;;;5051909;28;20024;-77
2022/09/08 09:09:08;;;;;;;18.13;13.35;;;;;;;;;;5056328;28;20561;-77
2022/09/08 09:11:45;;;;;;;22.83;13.30;;;;;;;;;;5051662;28;20028;-77
2022/09/08 09:14:45;;;;;;;20.25;12.85;;;;;;;;;;5067565;28;20037;-77
2022/09/08 09:17:29;;;;;;;18.08;12.23;;;;;;;;;;5053250;28;20110;-77
2022/09/08 09:20:23;;;;;;;14.23;11.00;;;;;;;;;;5059970;28;20032;-77
2022/09/08 09:23:06;;;;;;;13.98;10.90;;;;;;;;;;5074124;28;20033;-77
2022/09/08 09:25:36;;;;;;;14.13;11.05;;;;;;;;;;5069995;28;20036;-77
2022/09/08 09:28:36;;;;;;;18.02;12.15;;;;;;;;;;5046772;28;20031;-77
2022/09/08 09:31:10;;;;;;;14.23;11.95;;;;;;;;;;5048691;28;20045;-77
2022/09/08 09:33:54;;;;;;;19.85;13.25;;;;;;;;;;5066545;28;20116;-77
2022/09/08 09:36:22;;;;;;;16.27;13.60;;;;;;;;;;5069609;28;20518;-76
2022/09/08 09:39:08;;;;;;;17.45;13.40;;;;;;;;;;5072208;28;20035;-75
2022/09/08 09:42:11;;;;;;;29.60;14.27;;;;;;;;;;5072555;28;20106;-77
2022/09/08 09:44:42;;;;;;;18.38;16.00;;;;;;;;;;5080086;28;20017;-76
2022/09/08 09:47:20;;;;;;;22.20;14.73;;;;;;;;;;5075106;28;20082;-77
2022/09/08 09:49:56;;;;;;;16.80;14.98;;;;;;;;;;5074224;28;20464;-76
2022/09/08 09:52:55;;;;;;;17.10;14.27;;;;;;;;;;5064023;28;20052;-76
2022/09/08 09:55:26;;;;;;;18.10;15.38;;;;;;;;;;5063226;28;20447;-76
2022/09/08 09:58:30;;;;;;;18.92;15.02;;;;;;;;;;5054090;28;21618;-76
2022/09/08 10:01:15;;;;;;;20.77;15.55;;;;;;;;;;5074629;28;20075;-77
2022/09/08 10:04:16;;;;;;;20.13;14.70;;;;;;;;;;5057656;28;20032;-77
2022/09/08 10:06:52;;;;;;;16.02;13.82;;;;;;;;;;5078248;28;20028;-77
2022/09/08 10:09:36;;;;;;;15.90;12.25;;;;;;;;;;5058287;28;20024;-78
2022/09/08 10:12:39;;;;;;;16.00;13.95;;;;;;;;;;5070702;28;20036;-77
2022/09/08 10:15:07;;;;;;;17.15;12.50;;;;;;;;;;5070194;28;20086;-77
2022/09/08 10:18:16;;;;;;;15.68;13.00;;;;;;;;;;5070730;28;20038;-77
2022/09/08 10:21:09;;;;;;;14.07;12.57;;;;;;;;;;5045030;28;20045;-77
2022/09/08 10:24:04;;;;;;;15.77;12.95;;;;;;;;;;5064416;28;20107;-77
2022/09/08 10:26:52;;;;;;;14.73;12.35;;;;;;;;;;5070245;28;20123;-77
2022/09/08 10:29:36;;;;;;;14.07;12.38;;;;;;;;;;5058537;28;20064;-77
2022/09/08 10:32:29;;;;;;;14.57;12.98;;;;;;;;;;5058828;28;20041;-77
2022/09/08 10:34:57;;;;;;;13.65;12.27;;;;;;;;;;5070006;28;20045;-77
2022/09/08 10:37:59;;;;;;;17.65;12.18;;;;;;;;;;5074396;28;20119;-77
2022/09/08 10:40:28;;;;;;;13.45;12.02;;;;;;;;;;5072396;28;20117;-77
2022/09/08 10:43:03;;;;;;;13.95;11.82;;;;;;;;;;5069621;28;20036;-77
2022/09/08 10:45:34;;;;;;;18.27;13.45;;;;;;;;;;5058112;28;20465;-75
2022/09/08 10:48:27;;;;;;;14.27;12.20;;;;;;;;;;5068455;28;20042;-75
2022/09/08 10:50:53;;;;;;;12.65;11.25;;;;;;;;;;5068817;28;20071;-75
2022/09/08 10:53:41;;;;;;;13.82;10.38;;;;;;;;;;5051386;28;20369;-75
2022/09/08 10:56:13;;;;;;;14.45;11.77;;;;;;;;;;5069400;28;20541;-75
2022/09/08 10:59:04;;;;;;;14.82;11.10;;;;;;;;;;5035785;28;20477;-75
2022/09/08 11:01:47;;;;;;;12.63;11.35;;;;;;;;;;5069001;28;20602;-75
2022/09/08 11:04:32;;;;;;;;;;;;;;;;;;5068826;28;20036;-78
2022/09/08 11:07:06;;;;;;;14.95;12.45;;;;;;;;;;5068678;28;19965;-78
2022/09/08 11:10:07;;;;;;;12.60;11.38;;;;;;;;;;5071287;28;20479;-78
2022/09/08 11:12:43;;;;;;;15.18;12.45;;;;;;;;;;5070411;28;20506;-78
2022/09/08 11:15:40;;;;;;;12.85;11.55;;;;;;;;;;5052978;28;20028;-78
2022/09/08 11:18:19;;;;;;;13.02;11.73;;;;;;;;;;5043665;28;20057;-77
2022/09/08 11:20:51;;;;;;;13.75;12.35;;;;;;;;;;5053463;28;20037;-77
2022/09/08 11:23:16;;;;;;;13.77;12.38;;;;;;;;;;5045675;28;20057;-78
2022/09/08 11:25:50;;;;;;;14.65;13.25;;;;;;;;;;5069427;28;20063;-75
2022/09/08 11:28:41;;;;;;;13.43;11.82;;;;;;;;;;5052019;28;20027;-75
2022/09/08 11:31:34;;;;;;;15.57;11.80;;;;;;;;;;5076362;28;20043;-74
2022/09/08 11:34:36;;;;;;;14.90;11.13;;;;;;;;;;5061001;28;20063;-78
2022/09/08 11:37:25;;;;;;;12.63;10.45;;;;;;;;;;5065905;28;20492;-78
2022/09/08 11:40:04;;;;;;;14.18;10.48;;;;;;;;;;5060848;28;20068;-78
2022/09/08 11:42:48;;;;;;;13.27;10.68;;;;;;;;;;5068291;28;20032;-78
2022/09/08 11:45:14;;;;;;;13.43;9.65;;;;;;;;;;5069812;28;20808;-77
2022/09/08 11:47:52;;;;;;;14.50;9.93;;;;;;;;;;5073560;28;20137;-77
2022/09/08 11:50:50;;;;;;;11.65;9.40;;;;;;;;;;5054669;28;20462;-77
2022/09/08 11:53:39;;;;;;;11.02;8.95;;;;;;;;;;5071307;28;20071;-78
2022/09/08 11:56:17;;;;;;;12.27;9.65;;;;;;;;;;5067401;28;20390;-77
2022/09/08 11:59:04;;;;;;;14.18;9.88;;;;;;;;;;5053835;28;20035;-77
2022/09/08 12:02:00;;;;;;;14.43;7.88;;;;;;;;;;5073613;28;20033;-77
2022/09/08 12:04:31;;;;;;;11.85;8.40;;;;;;;;;;5068286;28;20041;-77
2022/09/08 12:07:06;;;;;;;10.20;8.20;;;;;;;;;;5063824;28;20020;-77
2022/09/08 12:09:46;;;;;;;12.05;7.15;;;;;;;;;;5073384;28;20027;-77
2022/09/08 12:12:29;;;;;;;9.75;7.05;;;;;;;;;;5064158;28;20023;-78
2022/09/08 12:14:55;;;;;;;10.13;7.20;;;;;;;;;;5070180;28;20415;-77
2022/09/08 12:17:27;;;;;;;10.18;7.18;;;;;;;;;;5068721;28;20036;-77
2022/09/08 12:20:03;;;;;;;10.05;6.28;;;;;;;;;;5070699;28;20033;-77
2022/09/08 12:22:42;;;;;;;8.10;6.18;;;;;;;;;;5019540;28;20122;-77
2022/09/08 12:25:21;;;;;;;8.77;6.53;;;;;;;;;;5064526;28;20391;-77
2022/09/08 12:28:10;;;;;;;10.45;6.28;;;;;;;;;;5055296;28;20028;-77
2022/09/08 12:31:00;;;;;;;9.27;5.53;;;;;;;;;;5056735;28;20057;-77
2022/09/08 12:33:25;;;;;;;11.70;5.35;;;;;;;;;;5055072;28;20085;-77
2022/09/08 12:35:59;;;;;;;9.23;5.32;;;;;;;;;;5071006;28;20476;-76
2022/09/08 12:38:43;;;;;;;9.70;5.88;;;;;;;;;;5059206;28;20037;-74
2022/09/08 12:41:27;;;;;;;9.32;5.90;;;;;;;;;;5081225;28;20030;-74
2022/09/08 12:44:11;;;;;;;8.63;4.75;;;;;;;;;;5069420;28;20031;-74
2022/09/08 12:46:42;;;;;;;9.38;5.60;;;;;;;;;;5038368;28;20099;-72
2022/09/08 12:49:31;;;;;;;10.85;5.20;;;;;;;;;;5068817;28;20059;-73
2022/09/08 12:52:00;;;;;;;13.27;5.43;;;;;;;;;;5069685;28;20050;-73
2022/09/08 12:54:34;;;;;;;7.00;4.10;;;;;;;;;;5072489;28;20027;-73
2022/09/08 12:57:04;;;;;;;8.18;4.40;;;;;;;;;;5070612;28;20028;-72
2022/09/08 12:59:57;;;;;;;7.85;3.50;;;;;;;;;;5071902;28;20060;-73
2022/09/08 13:02:40;;;;;;;6.90;3.00;;;;;;;;;;5063910;28;20032;-73
2022/09/08 13:05:24;;;;;;;6.03;3.55;;;;;;;;;;5071051;28;20024;-73
2022/09/08 13:08:08;;;;;;;8.63;3.72;;;;;;;;;;5072699;28;20020;-73
2022/09/08 13:10:36;;;;;;;6.55;3.55;;;;;;;;;;5075988;28;20028;-72
2022/09/08 13:13:24;;;;;;;10.23;3.55;;;;;;;;;;5069103;28;20036;-72
2022/09/08 13:15:58;;;;;;;9.95;3.33;;;;;;;;;;5065513;28;20024;-72
2022/09/08 13:18:30;;;;;;;9.68;3.58;;;;;;;;;;5058102;28;20032;-73
2022/09/08 13:21:09;;;;;;;9.50;3.72;;;;;;;;;;5069829;28;20130;-73
2022/09/08 13:23:53;;;;;;;8.38;3.60;;;;;;;;;;5048674;28;20429;-74
2022/09/08 13:26:30;;;;;;;5.82;3.70;;;;;;;;;;5072016;28;20029;-75
2022/09/08 13:29:38;;;;;;;7.75;3.20;;;;;;;;;;5054168;28;20053;-74
2022/09/08 13:32:31;;;;;;;7.80;4.30;;;;;;;;;;5051038;28;20092;-75
2022/09/08 13:35:12;;;;;;;;;;;;;;;;;;5064266;28;20036;-74
2022/09/08 13:37:54;;;;;;;13.55;4.63;;;;;;;;;;5078043;28;19958;-74
2022/09/08 13:40:30;;;;;;;10.57;5.40;;;;;;;;;;5081324;28;20469;-74
2022/09/08 13:43:20;;;;;;;10.85;5.18;;;;;;;;;;5046735;28;20059;-75
2022/09/08 13:45:47;;;;;;;7.07;4.78;;;;;;;;;;5082572;28;20132;-75
2022/09/08 13:48:22;;;;;;;7.70;3.67;;;;;;;;;;5075309;28;20359;-75
2022/09/08 13:51:18;;;;;;;8.10;3.60;;;;;;;;;;5059638;28;20101;-76
2022/09/08 13:54:00;;;;;;;3.92;1.45;;;;;;;;;;5059960;28;20030;-75
2022/09/08 13:56:40;;;;;;;4.65;1.67;;;;;;;;;;5062379;28;20476;-75
2022/09/08 13:59:34;;;;;;;5.10;1.90;;;;;;;;;;5072314;28;20032;-75
2022/09/08 14:01:59;;;;;;;6.07;2.50;;;;;;;;;;5058119;28;20048;-75
2022/09/08 14:04:28;;;;;;;4.45;2.53;;;;;;;;;;5069960;28;20438;-75
2022/09/08 14:07:11;;;;;;;5.68;2.72;;;;;;;;;;5055232;28;20032;-75
2022/09/08 14:09:37;;;;;;;6.57;2.50;;;;;;;;;;5070222;28;20598;-75
2022/09/08 14:12:17;;;;;;;8.57;3.10;;;;;;;;;;5035764;28;20118;-76
2022/09/08 14:14:58;;;;;;;7.50;3.05;;;;;;;;;;5069818;28;20119;-75
2022/09/08 14:17:43;;;;;;;6.88;2.88;;;;;;;;;;5069345;28;20122;-75
2022/09/08 14:20:28;;;;;;;7.72;2.75;;;;;;;;;;5053940;28;20029;-75
2022/09/08 14:23:12;;;;;;;6.82;3.20;;;;;;;;;;5048560;28;20094;-76
2022/09/08 14:25:37;;;;;;;9.63;2.85;;;;;;;;;;5061453;28;20025;-75
2022/09/08 14:28:13;;;;;;;5.72;2.83;;;;;;;;;;5051674;28;20443;-75
2022/09/08 14:30:49;;;;;;;9.60;2.50;;;;;;;;;;5069048;28;20392;-75
2022/09/08 14:33:32;;;;;;;7.05;2.55;;;;;;;;;;5069264;28;20046;-75
2022/09/08 14:36:10;;;;;;;8.73;2.10;;;;;;;;;;5048964;28;20044;-75
2022/09/08 14:38:51;;;;;;;8.93;2.55;;;;;;;;;;5036499;28;20221;-75
2022/09/08 14:41:21;;;;;;;7.10;2.50;;;;;;;;;;5071752;28;20030;-76
2022/09/08 14:44:00;;;;;;;12.73;3.13;;;;;;;;;;5075404;28;20684;-79
2022/09/08 14:46:47;;;;;;;5.38;2.17;;;;;;;;;;5058624;28;20122;-76
2022/09/08 14:49:15;;;;;;;7.38;2.30;;;;;;;;;;5030732;28;20381;-76
2022/09/08 14:52:09;;;;;;;7.15;2.85;;;;;;;;;;5068636;28;20127;-75
2022/09/08 14:54:56;;;;;;;9.68;3.22;;;;;;;;;;5075663;28;20030;-76
2022/09/08 14:57:46;;;;;;;9.02;2.47;;;;;;;;;;5067425;28;20024;-76
2022/09/08 15:00:26;;;;;;;6.40;2.65;;;;;;;;;;5036719;28;20032;-77
2022/09/08 15:02:58;;;;;;;8.93;2.90;;;;;;;;;;5046836;28;20104;-75
2022/09/08 15:05:32;;;;;;;9.47;2.80;;;;;;;;;;5041021;28;20029;-76
2022/09/08 15:08:11;;;;;;;7.68;2.70;;;;;;;;;;5061782;28;20047;-76